sensor_id;sensor_type;location;lat;lon;timestamp;P1;durP1;ratioP1;P2;durP2;ratioP2
26335;SDS011;14047;50.936;4.654;2023-05-19T00:01:42;17.25;;;8.35;;
26335;SDS011;14047;50.936;4.654;2023-05-19T00:04:09;14.55;;;7.90;;
26335;SDS011;14047;50.936;4.654;2023-05-19T00:06:41;16.90;;;8.13;;
26335;SDS011;14047;50.936;4.654;2023-05-19T00:09:09;15.98;;;8.52;;
26335;SDS011;14047;50.936;4.654;2023-05-19T00:11:37;16.83;;;8.30;;
26335;SDS011;14047;50.936;4.654;2023-05-19T00:14:05;15.95;;;8.80;;
26335;SDS011;14047;50.936;4.654;2023-05-19T00:16:33;15.52;;;8.73;;
26335;SDS011;14047;50.936;4.654;2023-05-19T00:19:01;18.83;;;8.95;;
26335;SDS011;14047;50.936;4.654;2023-05-19T00:21:28;15.15;;;8.05;;
26335;SDS011;14047;50.936;4.654;2023-05-19T00:23:55;12.82;;;7.75;;
26335;SDS011;14047;50.936;4.654;2023-05-19T00:26:22;17.67;;;8.90;;
26335;SDS011;14047;50.936;4.654;2023-05-19T00:29:01;11.60;;;8.13;;
26335;SDS011;14047;50.936;4.654;2023-05-19T00:31:27;17.63;;;8.25;;
26335;SDS011;14047;50.936;4.654;2023-05-19T00:33:53;17.77;;;8.15;;
26335;SDS011;14047;50.936;4.654;2023-05-19T00:36:19;13.43;;;7.85;;
26335;SDS011;14047;50.936;4.654;2023-05-19T00:38:45;13.60;;;8.35;;
26335;SDS011;14047;50.936;4.654;2023-05-19T00:41:11;16.23;;;7.82;;
26335;SDS011;14047;50.936;4.654;2023-05-19T00:43:37;14.57;;;7.57;;
26335;SDS011;14047;50.936;4.654;2023-05-19T00:46:03;15.43;;;8.05;;
26335;SDS011;14047;50.936;4.654;2023-05-19T00:48:29;18.02;;;8.07;;
26335;SDS011;14047;50.936;4.654;2023-05-19T00:50:56;18.98;;;7.82;;
26335;SDS011;14047;50.936;4.654;2023-05-19T00:53:26;12.85;;;8.15;;
26335;SDS011;14047;50.936;4.654;2023-05-19T00:55:53;16.73;;;9.27;;
26335;SDS011;14047;50.936;4.654;2023-05-19T00:58:19;15.07;;;8.40;;
26335;SDS011;14047;50.936;4.654;2023-05-19T01:00:45;15.32;;;8.55;;
26335;SDS011;14047;50.936;4.654;2023-05-19T01:03:12;13.73;;;8.13;;
26335;SDS011;14047;50.936;4.654;2023-05-19T01:05:42;17.30;;;9.10;;
26335;SDS011;14047;50.936;4.654;2023-05-19T01:08:12;15.65;;;8.77;;
26335;SDS011;14047;50.936;4.654;2023-05-19T01:10:38;14.40;;;9.18;;
26335;SDS011;14047;50.936;4.654;2023-05-19T01:13:04;23.25;;;9.02;;
26335;SDS011;14047;50.936;4.654;2023-05-19T01:15:32;14.35;;;8.20;;
26335;SDS011;14047;50.936;4.654;2023-05-19T01:18:14;16.25;;;8.82;;
26335;SDS011;14047;50.936;4.654;2023-05-19T01:20:57;16.17;;;10.43;;
26335;SDS011;14047;50.936;4.654;2023-05-19T01:26:10;22.08;;;10.18;;
26335;SDS011;14047;50.936;4.654;2023-05-19T01:31:35;20.70;;;10.05;;
26335;SDS011;14047;50.936;4.654;2023-05-19T01:34:05;22.73;;;9.77;;
26335;SDS011;14047;50.936;4.654;2023-05-19T01:36:31;20.13;;;9.30;;
26335;SDS011;14047;50.936;4.654;2023-05-19T01:38:59;17.83;;;9.55;;
26335;SDS011;14047;50.936;4.654;2023-05-19T01:41:26;22.60;;;9.68;;
26335;SDS011;14047;50.936;4.654;2023-05-19T01:43:53;18.83;;;9.63;;
26335;SDS011;14047;50.936;4.654;2023-05-19T01:46:21;17.17;;;9.38;;
26335;SDS011;14047;50.936;4.654;2023-05-19T01:48:48;19.05;;;10.85;;
26335;SDS011;14047;50.936;4.654;2023-05-19T01:51:17;18.00;;;10.02;;
26335;SDS011;14047;50.936;4.654;2023-05-19T01:53:43;17.45;;;9.63;;
26335;SDS011;14047;50.936;4.654;2023-05-19T01:56:09;18.23;;;9.13;;
26335;SDS011;14047;50.936;4.654;2023-05-19T02:12:15;17.08;;;9.10;;
26335;SDS011;14047;50.936;4.654;2023-05-19T02:15:16;20.30;;;9.70;;
26335;SDS011;14047;50.936;4.654;2023-05-19T02:17:45;24.85;;;9.73;;
26335;SDS011;14047;50.936;4.654;2023-05-19T02:20:15;21.98;;;10.20;;
26335;SDS011;14047;50.936;4.654;2023-05-19T02:22:42;17.00;;;9.32;;
26335;SDS011;14047;50.936;4.654;2023-05-19T02:25:09;18.50;;;10.15;;
26335;SDS011;14047;50.936;4.654;2023-05-19T02:27:36;18.88;;;10.45;;
26335;SDS011;14047;50.936;4.654;2023-05-19T02:30:03;29.17;;;10.70;;
26335;SDS011;14047;50.936;4.654;2023-05-19T02:32:30;25.33;;;10.40;;
26335;SDS011;14047;50.936;4.654;2023-05-19T02:35:00;24.33;;;12.00;;
26335;SDS011;14047;50.936;4.654;2023-05-19T02:37:27;19.90;;;10.73;;
26335;SDS011;14047;50.936;4.654;2023-05-19T02:39:53;17.35;;;11.18;;
26335;SDS011;14047;50.936;4.654;2023-05-19T02:42:20;20.38;;;11.50;;
26335;SDS011;14047;50.936;4.654;2023-05-19T02:44:46;20.20;;;10.60;;
26335;SDS011;14047;50.936;4.654;2023-05-19T02:47:13;21.85;;;10.35;;
26335;SDS011;14047;50.936;4.654;2023-05-19T02:49:39;20.88;;;10.48;;
26335;SDS011;14047;50.936;4.654;2023-05-19T02:52:05;18.23;;;10.50;;
26335;SDS011;14047;50.936;4.654;2023-05-19T02:54:32;23.70;;;9.85;;
26335;SDS011;14047;50.936;4.654;2023-05-19T02:56:59;18.25;;;10.23;;
26335;SDS011;14047;50.936;4.654;2023-05-19T02:59:25;18.77;;;9.50;;
26335;SDS011;14047;50.936;4.654;2023-05-19T03:01:55;15.15;;;8.32;;
26335;SDS011;14047;50.936;4.654;2023-05-19T03:04:23;23.42;;;10.02;;
26335;SDS011;14047;50.936;4.654;2023-05-19T03:06:49;16.52;;;9.68;;
26335;SDS011;14047;50.936;4.654;2023-05-19T03:09:15;16.75;;;10.15;;
26335;SDS011;14047;50.936;4.654;2023-05-19T03:11:41;18.85;;;10.00;;
26335;SDS011;14047;50.936;4.654;2023-05-19T03:14:07;19.70;;;10.55;;
26335;SDS011;14047;50.936;4.654;2023-05-19T03:16:39;20.83;;;9.40;;
26335;SDS011;14047;50.936;4.654;2023-05-19T03:19:06;19.67;;;9.13;;
26335;SDS011;14047;50.936;4.654;2023-05-19T03:21:33;20.25;;;9.95;;
26335;SDS011;14047;50.936;4.654;2023-05-19T03:24:00;21.08;;;9.65;;
26335;SDS011;14047;50.936;4.654;2023-05-19T03:26:26;19.08;;;11.45;;
26335;SDS011;14047;50.936;4.654;2023-05-19T03:28:54;20.67;;;11.15;;
26335;SDS011;14047;50.936;4.654;2023-05-19T03:31:20;20.77;;;10.65;;
26335;SDS011;14047;50.936;4.654;2023-05-19T03:33:46;23.50;;;10.98;;
26335;SDS011;14047;50.936;4.654;2023-05-19T03:36:12;23.25;;;11.00;;
26335;SDS011;14047;50.936;4.654;2023-05-19T03:38:39;21.85;;;10.95;;
26335;SDS011;14047;50.936;4.654;2023-05-19T03:41:05;17.45;;;10.63;;
26335;SDS011;14047;50.936;4.654;2023-05-19T03:43:31;17.90;;;9.85;;
26335;SDS011;14047;50.936;4.654;2023-05-19T03:46:01;21.75;;;10.88;;
26335;SDS011;14047;50.936;4.654;2023-05-19T03:48:45;21.92;;;10.63;;
26335;SDS011;14047;50.936;4.654;2023-05-19T03:51:16;18.70;;;10.95;;
26335;SDS011;14047;50.936;4.654;2023-05-19T03:53:43;20.13;;;10.50;;
26335;SDS011;14047;50.936;4.654;2023-05-19T03:56:09;28.23;;;11.50;;
26335;SDS011;14047;50.936;4.654;2023-05-19T03:58:39;21.85;;;12.02;;
26335;SDS011;14047;50.936;4.654;2023-05-19T04:01:09;24.65;;;11.85;;
26335;SDS011;14047;50.936;4.654;2023-05-19T04:03:35;25.00;;;11.90;;
26335;SDS011;14047;50.936;4.654;2023-05-19T04:06:04;20.38;;;11.50;;
26335;SDS011;14047;50.936;4.654;2023-05-19T04:08:33;21.63;;;11.63;;
26335;SDS011;14047;50.936;4.654;2023-05-19T04:10:59;20.42;;;11.80;;
26335;SDS011;14047;50.936;4.654;2023-05-19T04:13:25;20.20;;;10.80;;
26335;SDS011;14047;50.936;4.654;2023-05-19T04:15:51;19.23;;;11.00;;
26335;SDS011;14047;50.936;4.654;2023-05-19T04:18:17;22.02;;;11.98;;
26335;SDS011;14047;50.936;4.654;2023-05-19T04:20:43;24.15;;;12.45;;
26335;SDS011;14047;50.936;4.654;2023-05-19T04:23:09;27.75;;;12.50;;
26335;SDS011;14047;50.936;4.654;2023-05-19T04:25:36;26.05;;;12.43;;
26335;SDS011;14047;50.936;4.654;2023-05-19T04:28:02;27.85;;;12.50;;
26335;SDS011;14047;50.936;4.654;2023-05-19T04:30:29;22.52;;;11.60;;
26335;SDS011;14047;50.936;4.654;2023-05-19T04:32:55;26.20;;;12.48;;
26335;SDS011;14047;50.936;4.654;2023-05-19T04:35:22;26.00;;;12.20;;
26335;SDS011;14047;50.936;4.654;2023-05-19T04:37:49;28.83;;;13.77;;
26335;SDS011;14047;50.936;4.654;2023-05-19T04:40:20;25.77;;;13.27;;
26335;SDS011;14047;50.936;4.654;2023-05-19T04:42:49;26.33;;;12.60;;
26335;SDS011;14047;50.936;4.654;2023-05-19T04:45:17;30.45;;;13.27;;
26335;SDS011;14047;50.936;4.654;2023-05-19T04:47:46;25.60;;;12.30;;
26335;SDS011;14047;50.936;4.654;2023-05-19T04:50:12;20.75;;;12.63;;
26335;SDS011;14047;50.936;4.654;2023-05-19T04:52:39;21.40;;;12.85;;
26335;SDS011;14047;50.936;4.654;2023-05-19T04:55:06;21.77;;;12.32;;
26335;SDS011;14047;50.936;4.654;2023-05-19T04:57:35;22.63;;;12.20;;
26335;SDS011;14047;50.936;4.654;2023-05-19T05:00:02;29.95;;;14.27;;
26335;SDS011;14047;50.936;4.654;2023-05-19T05:02:41;26.17;;;12.82;;
26335;SDS011;14047;50.936;4.654;2023-05-19T05:05:07;35.55;;;14.10;;
26335;SDS011;14047;50.936;4.654;2023-05-19T05:07:34;31.75;;;14.52;;
26335;SDS011;14047;50.936;4.654;2023-05-19T05:10:00;28.83;;;14.63;;
26335;SDS011;14047;50.936;4.654;2023-05-19T05:12:29;31.73;;;16.30;;
26335;SDS011;14047;50.936;4.654;2023-05-19T05:14:55;31.58;;;15.98;;
26335;SDS011;14047;50.936;4.654;2023-05-19T05:17:21;34.17;;;15.95;;
26335;SDS011;14047;50.936;4.654;2023-05-19T05:19:50;36.42;;;21.00;;
26335;SDS011;14047;50.936;4.654;2023-05-19T05:22:16;30.75;;;16.30;;
26335;SDS011;14047;50.936;4.654;2023-05-19T05:24:42;35.22;;;16.67;;
26335;SDS011;14047;50.936;4.654;2023-05-19T05:27:09;33.78;;;16.35;;
26335;SDS011;14047;50.936;4.654;2023-05-19T05:29:35;29.95;;;16.67;;
26335;SDS011;14047;50.936;4.654;2023-05-19T05:32:03;38.60;;;16.30;;
26335;SDS011;14047;50.936;4.654;2023-05-19T05:34:30;31.30;;;16.52;;
26335;SDS011;14047;50.936;4.654;2023-05-19T05:36:56;28.55;;;17.00;;
26335;SDS011;14047;50.936;4.654;2023-05-19T05:39:22;27.55;;;16.17;;
26335;SDS011;14047;50.936;4.654;2023-05-19T05:41:48;25.65;;;14.85;;
26335;SDS011;14047;50.936;4.654;2023-05-19T05:44:15;28.15;;;16.67;;
26335;SDS011;14047;50.936;4.654;2023-05-19T05:46:43;28.05;;;15.60;;
26335;SDS011;14047;50.936;4.654;2023-05-19T05:49:09;29.20;;;15.65;;
26335;SDS011;14047;50.936;4.654;2023-05-19T05:51:39;28.20;;;13.35;;
26335;SDS011;14047;50.936;4.654;2023-05-19T05:54:09;26.30;;;13.88;;
26335;SDS011;14047;50.936;4.654;2023-05-19T05:56:41;21.40;;;12.77;;
26335;SDS011;14047;50.936;4.654;2023-05-19T05:59:08;20.48;;;12.80;;
26335;SDS011;14047;50.936;4.654;2023-05-19T06:01:37;31.80;;;13.60;;
26335;SDS011;14047;50.936;4.654;2023-05-19T06:04:06;25.48;;;12.75;;
26335;SDS011;14047;50.936;4.654;2023-05-19T06:06:35;24.08;;;12.73;;
26335;SDS011;14047;50.936;4.654;2023-05-19T06:09:03;27.58;;;12.55;;
26335;SDS011;14047;50.936;4.654;2023-05-19T06:11:30;27.60;;;13.57;;
26335;SDS011;14047;50.936;4.654;2023-05-19T06:13:59;21.30;;;13.02;;
26335;SDS011;14047;50.936;4.654;2023-05-19T06:16:54;25.20;;;12.65;;
26335;SDS011;14047;50.936;4.654;2023-05-19T06:19:20;22.60;;;12.52;;
26335;SDS011;14047;50.936;4.654;2023-05-19T06:21:50;26.52;;;13.32;;
26335;SDS011;14047;50.936;4.654;2023-05-19T06:24:16;20.30;;;12.32;;
26335;SDS011;14047;50.936;4.654;2023-05-19T06:26:42;23.23;;;13.07;;
26335;SDS011;14047;50.936;4.654;2023-05-19T06:29:08;20.90;;;12.38;;
26335;SDS011;14047;50.936;4.654;2023-05-19T06:31:34;25.50;;;13.07;;
26335;SDS011;14047;50.936;4.654;2023-05-19T06:34:08;23.98;;;12.90;;
26335;SDS011;14047;50.936;4.654;2023-05-19T06:36:38;21.77;;;13.57;;
26335;SDS011;14047;50.936;4.654;2023-05-19T06:39:06;22.88;;;12.25;;
26335;SDS011;14047;50.936;4.654;2023-05-19T06:41:32;20.10;;;11.77;;
26335;SDS011;14047;50.936;4.654;2023-05-19T06:43:59;19.92;;;11.93;;
26335;SDS011;14047;50.936;4.654;2023-05-19T06:46:25;19.13;;;11.80;;
26335;SDS011;14047;50.936;4.654;2023-05-19T06:48:51;21.35;;;11.43;;
26335;SDS011;14047;50.936;4.654;2023-05-19T06:51:20;23.88;;;11.60;;
26335;SDS011;14047;50.936;4.654;2023-05-19T06:53:49;21.60;;;12.15;;
26335;SDS011;14047;50.936;4.654;2023-05-19T06:56:15;21.73;;;12.07;;
26335;SDS011;14047;50.936;4.654;2023-05-19T06:58:44;21.65;;;12.38;;
26335;SDS011;14047;50.936;4.654;2023-05-19T07:01:10;23.00;;;11.25;;
26335;SDS011;14047;50.936;4.654;2023-05-19T07:03:42;25.13;;;11.95;;
26335;SDS011;14047;50.936;4.654;2023-05-19T07:06:10;23.45;;;12.20;;
26335;SDS011;14047;50.936;4.654;2023-05-19T07:08:36;17.85;;;11.55;;
26335;SDS011;14047;50.936;4.654;2023-05-19T07:11:03;18.80;;;11.98;;
26335;SDS011;14047;50.936;4.654;2023-05-19T07:13:30;29.13;;;10.98;;
26335;SDS011;14047;50.936;4.654;2023-05-19T07:15:57;20.63;;;11.73;;
26335;SDS011;14047;50.936;4.654;2023-05-19T07:18:25;23.30;;;11.32;;
26335;SDS011;14047;50.936;4.654;2023-05-19T07:20:54;22.08;;;11.65;;
26335;SDS011;14047;50.936;4.654;2023-05-19T07:23:20;21.27;;;10.73;;
26335;SDS011;14047;50.936;4.654;2023-05-19T07:25:46;16.23;;;10.93;;
26335;SDS011;14047;50.936;4.654;2023-05-19T07:28:12;20.38;;;11.13;;
26335;SDS011;14047;50.936;4.654;2023-05-19T07:30:38;25.50;;;11.30;;
26335;SDS011;14047;50.936;4.654;2023-05-19T07:33:04;26.20;;;12.77;;
26335;SDS011;14047;50.936;4.654;2023-05-19T07:35:31;17.52;;;11.15;;
26335;SDS011;14047;50.936;4.654;2023-05-19T07:37:57;22.15;;;10.88;;
26335;SDS011;14047;50.936;4.654;2023-05-19T07:40:23;19.90;;;10.65;;
26335;SDS011;14047;50.936;4.654;2023-05-19T07:42:49;22.80;;;10.90;;
26335;SDS011;14047;50.936;4.654;2023-05-19T07:45:15;21.65;;;10.85;;
26335;SDS011;14047;50.936;4.654;2023-05-19T07:47:41;19.45;;;11.95;;
26335;SDS011;14047;50.936;4.654;2023-05-19T07:50:07;19.00;;;11.15;;
26335;SDS011;14047;50.936;4.654;2023-05-19T07:52:33;19.90;;;11.38;;
26335;SDS011;14047;50.936;4.654;2023-05-19T07:54:59;20.58;;;10.45;;
26335;SDS011;14047;50.936;4.654;2023-05-19T07:57:25;19.30;;;10.45;;
26335;SDS011;14047;50.936;4.654;2023-05-19T07:59:51;17.00;;;10.15;;
26335;SDS011;14047;50.936;4.654;2023-05-19T08:02:17;15.07;;;10.85;;
26335;SDS011;14047;50.936;4.654;2023-05-19T08:04:43;21.65;;;10.00;;
26335;SDS011;14047;50.936;4.654;2023-05-19T08:07:09;21.70;;;9.77;;
26335;SDS011;14047;50.936;4.654;2023-05-19T08:09:35;16.33;;;10.07;;
26335;SDS011;14047;50.936;4.654;2023-05-19T08:12:01;21.10;;;9.88;;
26335;SDS011;14047;50.936;4.654;2023-05-19T08:14:29;21.42;;;10.02;;
26335;SDS011;14047;50.936;4.654;2023-05-19T08:16:57;21.10;;;9.60;;
26335;SDS011;14047;50.936;4.654;2023-05-19T08:19:23;14.15;;;9.77;;
26335;SDS011;14047;50.936;4.654;2023-05-19T08:21:49;15.73;;;8.63;;
26335;SDS011;14047;50.936;4.654;2023-05-19T08:24:15;17.88;;;8.63;;
26335;SDS011;14047;50.936;4.654;2023-05-19T08:26:42;22.48;;;9.18;;
26335;SDS011;14047;50.936;4.654;2023-05-19T08:29:08;18.60;;;10.05;;
26335;SDS011;14047;50.936;4.654;2023-05-19T08:31:34;27.77;;;8.85;;
26335;SDS011;14047;50.936;4.654;2023-05-19T08:34:00;16.38;;;7.88;;
26335;SDS011;14047;50.936;4.654;2023-05-19T08:36:26;15.15;;;7.50;;
26335;SDS011;14047;50.936;4.654;2023-05-19T08:38:53;17.50;;;7.45;;
26335;SDS011;14047;50.936;4.654;2023-05-19T08:41:18;15.38;;;7.20;;
26335;SDS011;14047;50.936;4.654;2023-05-19T08:43:45;17.20;;;7.55;;
26335;SDS011;14047;50.936;4.654;2023-05-19T08:46:12;15.43;;;7.22;;
26335;SDS011;14047;50.936;4.654;2023-05-19T08:48:41;15.25;;;6.82;;
26335;SDS011;14047;50.936;4.654;2023-05-19T08:53:50;14.30;;;7.82;;
26335;SDS011;14047;50.936;4.654;2023-05-19T08:56:21;18.90;;;7.68;;
26335;SDS011;14047;50.936;4.654;2023-05-19T08:58:49;13.82;;;6.60;;
26335;SDS011;14047;50.936;4.654;2023-05-19T09:01:16;13.52;;;6.22;;
26335;SDS011;14047;50.936;4.654;2023-05-19T09:03:43;21.67;;;6.57;;
26335;SDS011;14047;50.936;4.654;2023-05-19T09:06:11;16.98;;;6.60;;
26335;SDS011;14047;50.936;4.654;2023-05-19T09:08:41;12.95;;;6.43;;
26335;SDS011;14047;50.936;4.654;2023-05-19T09:11:08;12.40;;;6.45;;
26335;SDS011;14047;50.936;4.654;2023-05-19T09:13:35;15.13;;;5.95;;
26335;SDS011;14047;50.936;4.654;2023-05-19T09:16:01;11.48;;;5.13;;
26335;SDS011;14047;50.936;4.654;2023-05-19T09:18:27;11.38;;;4.57;;
26335;SDS011;14047;50.936;4.654;2023-05-19T09:20:58;14.25;;;4.80;;
26335;SDS011;14047;50.936;4.654;2023-05-19T09:23:25;11.07;;;4.22;;
26335;SDS011;14047;50.936;4.654;2023-05-19T09:26:01;9.65;;;4.20;;
26335;SDS011;14047;50.936;4.654;2023-05-19T09:28:32;8.80;;;3.97;;
26335;SDS011;14047;50.936;4.654;2023-05-19T09:31:02;8.70;;;3.97;;
26335;SDS011;14047;50.936;4.654;2023-05-19T09:33:30;9.43;;;3.88;;
26335;SDS011;14047;50.936;4.654;2023-05-19T09:35:58;14.60;;;4.38;;
26335;SDS011;14047;50.936;4.654;2023-05-19T09:38:24;11.45;;;5.15;;
26335;SDS011;14047;50.936;4.654;2023-05-19T09:40:57;10.88;;;3.60;;
26335;SDS011;14047;50.936;4.654;2023-05-19T09:43:27;11.15;;;3.47;;
26335;SDS011;14047;50.936;4.654;2023-05-19T09:48:30;9.00;;;3.20;;
26335;SDS011;14047;50.936;4.654;2023-05-19T09:50:56;9.75;;;3.05;;
26335;SDS011;14047;50.936;4.654;2023-05-19T09:53:24;11.27;;;3.63;;
26335;SDS011;14047;50.936;4.654;2023-05-19T09:55:53;11.35;;;3.80;;
26335;SDS011;14047;50.936;4.654;2023-05-19T09:58:22;14.10;;;4.20;;
26335;SDS011;14047;50.936;4.654;2023-05-19T10:00:50;10.00;;;3.33;;
26335;SDS011;14047;50.936;4.654;2023-05-19T10:03:21;10.88;;;3.78;;
26335;SDS011;14047;50.936;4.654;2023-05-19T10:05:48;12.90;;;3.63;;
26335;SDS011;14047;50.936;4.654;2023-05-19T10:08:15;6.13;;;3.15;;
26335;SDS011;14047;50.936;4.654;2023-05-19T10:10:43;10.05;;;4.05;;
26335;SDS011;14047;50.936;4.654;2023-05-19T10:13:11;8.52;;;2.80;;
26335;SDS011;14047;50.936;4.654;2023-05-19T10:15:38;7.75;;;3.10;;
26335;SDS011;14047;50.936;4.654;2023-05-19T10:18:07;13.57;;;3.17;;
26335;SDS011;14047;50.936;4.654;2023-05-19T10:20:34;9.38;;;3.28;;
26335;SDS011;14047;50.936;4.654;2023-05-19T10:23:01;9.25;;;3.00;;
26335;SDS011;14047;50.936;4.654;2023-05-19T10:25:31;8.25;;;3.15;;
26335;SDS011;14047;50.936;4.654;2023-05-19T10:28:00;15.88;;;3.22;;
26335;SDS011;14047;50.936;4.654;2023-05-19T10:30:35;7.65;;;3.45;;
26335;SDS011;14047;50.936;4.654;2023-05-19T10:33:05;7.82;;;3.33;;
26335;SDS011;14047;50.936;4.654;2023-05-19T10:36:22;9.43;;;3.25;;
26335;SDS011;14047;50.936;4.654;2023-05-19T10:38:40;5.88;;;3.03;;
26335;SDS011;14047;50.936;4.654;2023-05-19T10:46:32;7.97;;;2.40;;
26335;SDS011;14047;50.936;4.654;2023-05-19T10:48:58;8.10;;;2.95;;
26335;SDS011;14047;50.936;4.654;2023-05-19T10:51:27;11.90;;;3.15;;
26335;SDS011;14047;50.936;4.654;2023-05-19T10:53:56;9.63;;;3.33;;
26335;SDS011;14047;50.936;4.654;2023-05-19T10:56:29;8.32;;;3.10;;
26335;SDS011;14047;50.936;4.654;2023-05-19T10:58:59;5.95;;;2.53;;
26335;SDS011;14047;50.936;4.654;2023-05-19T11:01:30;5.03;;;2.20;;
26335;SDS011;14047;50.936;4.654;2023-05-19T11:04:01;7.05;;;2.20;;
26335;SDS011;14047;50.936;4.654;2023-05-19T11:06:37;8.13;;;1.98;;
26335;SDS011;14047;50.936;4.654;2023-05-19T11:09:14;4.57;;;2.22;;
26335;SDS011;14047;50.936;4.654;2023-05-19T11:11:47;5.28;;;1.77;;
26335;SDS011;14047;50.936;4.654;2023-05-19T11:14:13;7.85;;;2.00;;
26335;SDS011;14047;50.936;4.654;2023-05-19T11:16:47;7.53;;;2.13;;
26335;SDS011;14047;50.936;4.654;2023-05-19T11:19:19;9.35;;;2.03;;
26335;SDS011;14047;50.936;4.654;2023-05-19T11:21:51;4.88;;;2.17;;
26335;SDS011;14047;50.936;4.654;2023-05-19T11:30:11;8.18;;;2.08;;
26335;SDS011;14047;50.936;4.654;2023-05-19T11:32:39;6.57;;;2.00;;
26335;SDS011;14047;50.936;4.654;2023-05-19T11:35:08;6.13;;;1.92;;
26335;SDS011;14047;50.936;4.654;2023-05-19T11:37:35;9.18;;;2.10;;
26335;SDS011;14047;50.936;4.654;2023-05-19T11:40:01;7.25;;;2.05;;
26335;SDS011;14047;50.936;4.654;2023-05-19T11:42:32;8.65;;;2.85;;
26335;SDS011;14047;50.936;4.654;2023-05-19T11:45:02;7.78;;;2.03;;
26335;SDS011;14047;50.936;4.654;2023-05-19T11:47:30;5.85;;;2.25;;
26335;SDS011;14047;50.936;4.654;2023-05-19T11:49:59;7.38;;;2.10;;
26335;SDS011;14047;50.936;4.654;2023-05-19T11:52:26;13.38;;;2.47;;
26335;SDS011;14047;50.936;4.654;2023-05-19T11:54:52;7.25;;;2.20;;
26335;SDS011;14047;50.936;4.654;2023-05-19T11:57:18;11.52;;;2.50;;
26335;SDS011;14047;50.936;4.654;2023-05-19T11:59:45;5.25;;;2.10;;
26335;SDS011;14047;50.936;4.654;2023-05-19T12:02:23;7.20;;;2.92;;
26335;SDS011;14047;50.936;4.654;2023-05-19T12:04:50;4.78;;;2.03;;
26335;SDS011;14047;50.936;4.654;2023-05-19T12:07:17;8.65;;;2.63;;
26335;SDS011;14047;50.936;4.654;2023-05-19T12:09:48;7.40;;;2.38;;
26335;SDS011;14047;50.936;4.654;2023-05-19T12:12:15;6.45;;;2.70;;
26335;SDS011;14047;50.936;4.654;2023-05-19T12:14:43;9.80;;;2.80;;
26335;SDS011;14047;50.936;4.654;2023-05-19T12:17:14;7.68;;;2.70;;
26335;SDS011;14047;50.936;4.654;2023-05-19T12:19:45;7.78;;;2.63;;
26335;SDS011;14047;50.936;4.654;2023-05-19T12:22:13;7.15;;;2.40;;
26335;SDS011;14047;50.936;4.654;2023-05-19T12:24:41;7.47;;;2.20;;
26335;SDS011;14047;50.936;4.654;2023-05-19T12:27:18;11.38;;;2.75;;
26335;SDS011;14047;50.936;4.654;2023-05-19T12:29:53;5.18;;;2.30;;
26335;SDS011;14047;50.936;4.654;2023-05-19T12:32:22;7.05;;;2.45;;
26335;SDS011;14047;50.936;4.654;2023-05-19T12:34:49;7.55;;;2.42;;
26335;SDS011;14047;50.936;4.654;2023-05-19T12:37:16;9.73;;;2.92;;
26335;SDS011;14047;50.936;4.654;2023-05-19T12:39:44;7.45;;;2.17;;
26335;SDS011;14047;50.936;4.654;2023-05-19T12:42:10;5.25;;;2.20;;
26335;SDS011;14047;50.936;4.654;2023-05-19T12:44:37;5.85;;;2.65;;
26335;SDS011;14047;50.936;4.654;2023-05-19T12:47:11;8.05;;;2.35;;
26335;SDS011;14047;50.936;4.654;2023-05-19T12:49:59;9.15;;;2.90;;
26335;SDS011;14047;50.936;4.654;2023-05-19T12:52:28;15.27;;;2.30;;
26335;SDS011;14047;50.936;4.654;2023-05-19T12:55:01;8.38;;;2.17;;
26335;SDS011;14047;50.936;4.654;2023-05-19T12:57:38;7.78;;;2.45;;
26335;SDS011;14047;50.936;4.654;2023-05-19T13:02:35;8.32;;;2.30;;
26335;SDS011;14047;50.936;4.654;2023-05-19T13:05:19;6.22;;;1.98;;
26335;SDS011;14047;50.936;4.654;2023-05-19T13:07:55;7.47;;;2.53;;
26335;SDS011;14047;50.936;4.654;2023-05-19T13:10:35;10.27;;;2.47;;
26335;SDS011;14047;50.936;4.654;2023-05-19T13:13:02;4.85;;;2.45;;
26335;SDS011;14047;50.936;4.654;2023-05-19T13:15:30;5.53;;;2.40;;
26335;SDS011;14047;50.936;4.654;2023-05-19T13:18:02;7.20;;;2.58;;
26335;SDS011;14047;50.936;4.654;2023-05-19T13:20:30;5.50;;;2.25;;
26335;SDS011;14047;50.936;4.654;2023-05-19T13:22:57;7.63;;;2.17;;
26335;SDS011;14047;50.936;4.654;2023-05-19T13:25:23;8.10;;;2.58;;
26335;SDS011;14047;50.936;4.654;2023-05-19T13:27:50;8.02;;;2.25;;
26335;SDS011;14047;50.936;4.654;2023-05-19T13:30:16;8.10;;;2.25;;
26335;SDS011;14047;50.936;4.654;2023-05-19T13:32:43;4.65;;;1.95;;
26335;SDS011;14047;50.936;4.654;2023-05-19T13:35:10;12.98;;;2.40;;
26335;SDS011;14047;50.936;4.654;2023-05-19T13:37:37;5.50;;;1.92;;
26335;SDS011;14047;50.936;4.654;2023-05-19T13:40:04;11.30;;;1.92;;
26335;SDS011;14047;50.936;4.654;2023-05-19T13:42:30;5.60;;;2.20;;
26335;SDS011;14047;50.936;4.654;2023-05-19T13:44:57;4.35;;;1.95;;
26335;SDS011;14047;50.936;4.654;2023-05-19T13:47:23;8.63;;;2.00;;
26335;SDS011;14047;50.936;4.654;2023-05-19T13:49:49;7.45;;;2.10;;
26335;SDS011;14047;50.936;4.654;2023-05-19T13:52:16;5.88;;;2.25;;
26335;SDS011;14047;50.936;4.654;2023-05-19T13:54:45;6.03;;;2.05;;
26335;SDS011;14047;50.936;4.654;2023-05-19T13:57:12;7.15;;;1.90;;
26335;SDS011;14047;50.936;4.654;2023-05-19T13:59:38;4.95;;;2.58;;
26335;SDS011;14047;50.936;4.654;2023-05-19T14:02:05;3.88;;;1.92;;
26335;SDS011;14047;50.936;4.654;2023-05-19T14:04:40;6.72;;;2.10;;
26335;SDS011;14047;50.936;4.654;2023-05-19T14:07:07;12.00;;;2.17;;
26335;SDS011;14047;50.936;4.654;2023-05-19T14:09:34;8.05;;;2.03;;
26335;SDS011;14047;50.936;4.654;2023-05-19T14:12:01;5.40;;;1.90;;
26335;SDS011;14047;50.936;4.654;2023-05-19T14:14:27;6.88;;;1.88;;
26335;SDS011;14047;50.936;4.654;2023-05-19T14:16:53;12.13;;;1.70;;
26335;SDS011;14047;50.936;4.654;2023-05-19T14:19:20;8.93;;;2.25;;
26335;SDS011;14047;50.936;4.654;2023-05-19T14:21:48;12.00;;;2.50;;
26335;SDS011;14047;50.936;4.654;2023-05-19T14:24:15;6.47;;;2.05;;
26335;SDS011;14047;50.936;4.654;2023-05-19T14:26:40;7.45;;;2.30;;
26335;SDS011;14047;50.936;4.654;2023-05-19T14:29:06;7.43;;;1.90;;
26335;SDS011;14047;50.936;4.654;2023-05-19T14:31:33;4.53;;;1.60;;
26335;SDS011;14047;50.936;4.654;2023-05-19T14:33:59;7.75;;;1.65;;
26335;SDS011;14047;50.936;4.654;2023-05-19T14:36:25;5.35;;;1.75;;
26335;SDS011;14047;50.936;4.654;2023-05-19T14:38:51;6.53;;;2.00;;
26335;SDS011;14047;50.936;4.654;2023-05-19T14:41:20;6.45;;;1.90;;
26335;SDS011;14047;50.936;4.654;2023-05-19T14:43:46;9.95;;;2.25;;
26335;SDS011;14047;50.936;4.654;2023-05-19T14:46:12;8.05;;;2.17;;
26335;SDS011;14047;50.936;4.654;2023-05-19T14:48:38;5.63;;;1.83;;
26335;SDS011;14047;50.936;4.654;2023-05-19T14:51:04;6.60;;;1.63;;
26335;SDS011;14047;50.936;4.654;2023-05-19T14:53:30;3.30;;;1.75;;
26335;SDS011;14047;50.936;4.654;2023-05-19T14:55:56;5.10;;;1.70;;
26335;SDS011;14047;50.936;4.654;2023-05-19T14:58:22;6.93;;;1.90;;
26335;SDS011;14047;50.936;4.654;2023-05-19T15:00:48;11.05;;;2.15;;
26335;SDS011;14047;50.936;4.654;2023-05-19T15:03:14;7.15;;;1.88;;
26335;SDS011;14047;50.936;4.654;2023-05-19T15:05:40;13.27;;;2.42;;
26335;SDS011;14047;50.936;4.654;2023-05-19T15:08:07;11.13;;;1.95;;
26335;SDS011;14047;50.936;4.654;2023-05-19T15:10:33;7.20;;;1.90;;
26335;SDS011;14047;50.936;4.654;2023-05-19T15:12:59;4.85;;;1.88;;
26335;SDS011;14047;50.936;4.654;2023-05-19T15:15:26;4.53;;;1.52;;
26335;SDS011;14047;50.936;4.654;2023-05-19T15:17:52;7.38;;;2.20;;